METAR stanice u blizini

 

LYBE - Beograd / Surčin, Srbija
Ažurirano: 13/08/2022 21:00
Vedro
Vedro
 Pravac vetra ZSZ
Vetar: ZSZ 7 km/h
Temperatura: 19°C
Tačka rose: 17°C
Vlažnost: 88%
Pritisak: 1011 hPa
Pregled: Vedro
Vidljivost: greater than 10 km
2022/08/13 19:00 LYBE 131900Z 30004KT CAVOK 19/17 Q1011 NOSIG
LYBT - Beograd / Batajnica, Srbija
Ažurirano: 13/08/2022 21:00
Vedro
Vedro
 Pravac vetra JJZ
Vetar: JJZ 6 km/h
Temperatura: 18°C
Tačka rose: 18°C
Vlažnost: 100%
Pritisak: 1011 hPa
Pregled: Vedro
Vidljivost: greater than 10 km
2022/08/13 19:00 LYBT 131900Z 21003KT CAVOK 18/18 Q1011 NOSIG
LYVR - Vršac, Srbija
Ažurirano: 13/08/2022 21:00
Vedro
Vedro
 Pravac vetra SI
Vetar: SI 2 km/h
Temperatura: 20°C
Tačka rose: 15°C
Vlažnost: 73%
Pritisak: 1011 hPa
Pregled: Vedro
Vidljivost: greater than 10 km
2022/08/13 19:00 LYVR 131900Z AUTO 05001KT CAVOK 20/15 Q1011
 
LYKV - Lađevci, Srbija
Ažurirano: 13/08/2022 21:00
Light thunderstorm, Padavine, Pretežno oblačno
Light thunderstorm, Padavine, Pretežno oblačno
 Pravac vetra ZJZ
Vetar: ZJZ 6 km/h
Temperatura: 21°C
Tačka rose: 18°C
Vlažnost: 83%
Pritisak: 1012 hPa
Pregled: Light thunderstorm, Padavine
Oblaci: Mostly Cloudy
Vidljivost: 10 km
Cloud details: Partly Cloudy 823 m
Mostly Cloudy 1006 m
2022/08/13 19:00 LYKV 131900Z 25003KT 180V280 9999 -TSRA SCT027CB BKN033 21/18 Q1012 TEMPO 3000 TSRA
LYNI - Niš, Srbija
Ažurirano: 13/08/2022 21:00
Thunderstorm, Delimično oblačno
Thunderstorm, Delimično oblačno
 Pravac vetra SZ
Vetar: SZ 7 km/h
Temperatura: 21°C
Tačka rose: 17°C
Vlažnost: 78%
Pritisak: 1011 hPa
Pregled: Thunderstorm
Oblaci: Partly Cloudy
Vidljivost: 10 km
Cloud details: Few Clouds 1006 m
Partly Cloudy 1219 m
2022/08/13 19:00 LYNI 131900Z 32004KT 9999 TS FEW033CB SCT040 21/17 Q1011 NOSIG
BKPR - Priština, Srbija
Ažurirano: 13/08/2022 21:30
Mostly Cloudy
Mostly Cloudy
 Pravac vetra SZ
Vetar: SZ 7 km/h
Temperatura: 18°C
Tačka rose: 16°C
Vlažnost: 88%
Pritisak: 1012 hPa
Oblaci: Mostly Cloudy
Vidljivost: 10 km
Cloud details: Partly Cloudy 1615 m
Mostly Cloudy 2682 m
2022/08/13 19:30 BKPR 131930Z 32004KT 9999 SCT053 BKN088 18/16 Q1012 NOSIG
 
LHPP - Pecs / Pogany, Hungary
Ažurirano: 13/08/2022 20:45
Vedro
Vedro
 Pravac vetra Z
Vetar: Z 6 km/h
Temperatura: 19°C
Tačka rose: 17°C
Vlažnost: 88%
Pritisak: 1011 hPa
Pregled: Vedro
Vidljivost: greater than 10 km
2022/08/13 18:45 LHPP 131845Z AUTO 27003KT 240V300 CAVOK 19/17 Q1011
LHUD - Szeged, Hungary
Ažurirano: 04/07/2019 01:45
NOT Current
Vedro
Vedro
 Pravac vetra S
Vetar: S 7 km/h
Temperatura: 18°C
Tačka rose: 13°C
Vlažnost: 73%
Pritisak: 1019 hPa
Pregled: Vedro
Vidljivost: greater than 10 km
2019/07/03 23:45 LHUD 032345Z 35004KT CAVOK 18/13 Q1019
LRTR - Timisoara, Romania
Ažurirano: 13/08/2022 21:00
Vedro
Vedro
 Pravac vetra Z
Vetar: Z 11 km/h
Temperatura: 23°C
Tačka rose: 15°C
Vlažnost: 61%
Pritisak: 1010 hPa
Pregled: Vedro
Vidljivost: greater than 10 km
2022/08/13 19:00 LRTR 131900Z 27006KT CAVOK 23/15 Q1010
 
LRCV - Craiova, Romania
Ažurirano: 13/08/2022 21:00
Vedro
Vedro
 Pravac vetra ZSZ
Vetar: ZSZ 6 km/h
Temperatura: 21°C
Tačka rose: 19°C
Vlažnost: 88%
Pritisak: 1009 hPa
Pregled: Vedro
Vidljivost: greater than 10 km
2022/08/13 19:00 LRCV 131900Z 29003KT CAVOK 21/19 Q1009
LBSF - Sofia, Bulgaria
Ažurirano: 13/08/2022 21:00
Partly Cloudy
Partly Cloudy
 Pravac vetra calm
Vetar: Tišina
Temperatura: 17°C
Tačka rose: 17°C
Vlažnost: 100%
Pritisak: 1012 hPa
Oblaci: Partly Cloudy
Vidljivost: 10 km
2022/08/13 19:00 LBSF 131900Z AUTO 00000KT 9999 NSC 17/17 Q1012 NOSIG
LWSK - Skoplje, Makedonija
Ažurirano: 13/08/2022 21:00
Oblačno
Oblačno
 Pravac vetra JI
Vetar: JI 6 km/h
Temperatura: 19°C
Tačka rose: 18°C
Vlažnost: 94%
Pritisak: 1010 hPa
Oblaci: Oblačno
Vidljivost: 10 km
Cloud details: Oblačno 2743 m
2022/08/13 19:00 LWSK 131900Z 14003KT 9999 OVC090 19/18 Q1010 NOSIG
 
LYPG - Podgorica, Crna Gora
Ažurirano: 13/08/2022 21:00
Mostly Cloudy
Mostly Cloudy
 Pravac vetra I
Vetar: I 7 km/h
Temperatura: 24°C
Tačka rose: 17°C
Vlažnost: 65%
Pritisak: 1009 hPa
Oblaci: Mostly Cloudy
Vidljivost: 10 km
Cloud details: Few Clouds 1219 m
Mostly Cloudy 2743 m
2022/08/13 19:00 LYPG 131900Z 10004KT 070V130 9999 FEW040 BKN090 24/17 Q1009 NOSIG
LQSA - Sarajevo, Bosna i Hercegovina
Ažurirano: 13/08/2022 21:00
Partly Cloudy
Partly Cloudy
 Pravac vetra varies
Vetar: varies 4 km/h
Temperatura: 14°C
Tačka rose: 14°C
Vlažnost: 100%
Pritisak: 1013 hPa
Oblaci: Partly Cloudy
Vidljivost: 10 km
Cloud details: Few Clouds 610 m
Partly Cloudy 1372 m
2022/08/13 19:00 LQSA 131900Z VRB02KT 9999 FEW020 SCT045 14/14 Q1013 NOSIG
LDOS - Osijek, Hrvatksa
Ažurirano: 13/08/2022 21:00
Vedro
Vedro
 Pravac vetra Z
Vetar: Z 11 km/h
Temperatura: 19°C
Tačka rose: 17°C
Vlažnost: 88%
Pritisak: 1012 hPa
Pregled: Vedro
Vidljivost: greater than 10 km
2022/08/13 19:00 LDOS 131900Z 27006KT CAVOK 19/17 Q1012